createdAt,value
2018-05-04T00:00:14.218Z,0
2018-05-04T00:01:15.813Z,0
2018-05-04T00:02:17.399Z,0
2018-05-04T00:03:19.119Z,0
2018-05-04T00:04:20.738Z,0
2018-05-04T00:05:22.357Z,0
2018-05-04T00:06:23.971Z,0
2018-05-04T00:07:25.617Z,0
2018-05-04T00:08:27.204Z,0
2018-05-04T00:09:28.809Z,0
2018-05-04T00:10:30.436Z,0
2018-05-04T00:11:32.050Z,0
2018-05-04T00:12:33.694Z,0
2018-05-04T00:13:35.310Z,0
2018-05-04T00:14:36.956Z,0
2018-05-04T00:15:38.649Z,0
2018-05-04T00:16:40.285Z,0
2018-05-04T00:17:42.006Z,0
2018-05-04T00:18:43.677Z,0
2018-05-04T00:19:45.320Z,0
2018-05-04T00:20:46.884Z,0
2018-05-04T00:21:48.485Z,0
2018-05-04T00:22:50.064Z,0
2018-05-04T00:23:51.653Z,0
2018-05-04T00:24:53.267Z,0
2018-05-04T00:25:54.840Z,0
2018-05-04T00:26:56.429Z,0
2018-05-04T00:27:58.016Z,0
2018-05-04T00:28:59.625Z,0
2018-05-04T00:30:01.232Z,0
2018-05-04T00:31:02.799Z,0
2018-05-04T00:32:04.378Z,0
2018-05-04T00:33:05.986Z,0
2018-05-04T00:34:07.557Z,0
2018-05-04T00:35:09.144Z,0
2018-05-04T00:36:10.743Z,0
2018-05-04T00:37:12.339Z,0
2018-05-04T00:38:13.912Z,0
2018-05-04T00:39:15.515Z,0
2018-05-04T00:40:17.100Z,0
2018-05-04T00:41:18.680Z,0
2018-05-04T00:42:20.264Z,0
2018-05-04T00:43:21.852Z,0
2018-05-04T00:44:23.504Z,0
2018-05-04T00:45:25.099Z,0
2018-05-04T00:46:26.689Z,0
2018-05-04T00:47:28.285Z,0
2018-05-04T00:48:29.876Z,0
2018-05-04T00:49:31.460Z,0
2018-05-04T00:50:33.058Z,0
2018-05-04T00:51:34.736Z,0
2018-05-04T00:52:36.341Z,0
2018-05-04T00:53:37.932Z,0
2018-05-04T00:54:39.495Z,0
2018-05-04T00:55:41.078Z,0
2018-05-04T00:56:42.679Z,0
2018-05-04T00:57:44.267Z,0
2018-05-04T00:58:45.862Z,0
2018-05-04T00:59:47.441Z,0
2018-05-04T01:00:49.024Z,0
2018-05-04T01:01:50.604Z,0
2018-05-04T01:02:52.226Z,0
2018-05-04T01:03:53.817Z,0
2018-05-04T01:04:55.418Z,0
2018-05-04T01:05:57.014Z,0
2018-05-04T01:06:58.637Z,0
2018-05-04T01:08:00.221Z,0
2018-05-04T01:09:01.849Z,0
2018-05-04T01:10:03.437Z,0
2018-05-04T01:11:05.045Z,0
2018-05-04T01:12:06.652Z,0
2018-05-04T01:13:08.242Z,0
2018-05-04T01:14:09.823Z,0
2018-05-04T01:15:11.432Z,0
2018-05-04T01:16:13.038Z,0
2018-05-04T01:17:14.632Z,0
2018-05-04T01:18:16.212Z,0
2018-05-04T01:19:17.799Z,0
2018-05-04T01:20:19.394Z,0
2018-05-04T01:21:20.992Z,0
2018-05-04T01:22:22.582Z,0
2018-05-04T01:23:24.148Z,0
2018-05-04T01:24:25.753Z,0
2018-05-04T01:25:27.354Z,0
2018-05-04T01:26:28.914Z,0
2018-05-04T01:27:30.493Z,0
2018-05-04T01:28:32.074Z,0
2018-05-04T01:29:33.670Z,0
2018-05-04T01:30:35.257Z,0
2018-05-04T01:31:36.849Z,0
2018-05-04T01:32:38.426Z,0
2018-05-04T01:33:40.018Z,0
2018-05-04T01:34:41.619Z,0
2018-05-04T01:35:43.192Z,0
2018-05-04T01:36:44.776Z,0
2018-05-04T01:37:46.372Z,0
2018-05-04T01:38:47.980Z,0
2018-05-04T01:39:49.555Z,0
2018-05-04T01:40:51.131Z,0
2018-05-04T01:41:52.705Z,0
2018-05-04T01:42:54.255Z,0
2018-05-04T01:43:56.468Z,0
2018-05-04T01:44:58.079Z,0
2018-05-04T01:45:59.638Z,0
2018-05-04T01:47:01.262Z,0
2018-05-04T01:48:02.842Z,0
2018-05-04T01:49:04.426Z,0
2018-05-04T01:50:06.020Z,0
2018-05-04T01:51:07.587Z,0
2018-05-04T01:52:09.195Z,0
2018-05-04T01:53:10.779Z,0
2018-05-04T01:54:12.372Z,0
2018-05-04T01:55:13.951Z,0
2018-05-04T01:56:15.565Z,0
2018-05-04T01:57:17.149Z,0
2018-05-04T01:58:18.734Z,0
2018-05-04T01:59:20.304Z,0
2018-05-04T02:00:21.915Z,0
2018-05-04T02:01:23.508Z,0
2018-05-04T02:02:25.096Z,0
2018-05-04T02:03:26.668Z,0
2018-05-04T02:04:28.264Z,0
2018-05-04T02:05:29.834Z,0
2018-05-04T02:06:31.423Z,0
2018-05-04T02:07:33.003Z,0
2018-05-04T02:08:34.608Z,0
2018-05-04T02:09:36.182Z,0
2018-05-04T02:10:37.762Z,0
2018-05-04T02:11:39.333Z,0
2018-05-04T02:12:40.911Z,0
2018-05-04T02:13:42.500Z,0
2018-05-04T02:14:44.074Z,0
2018-05-04T02:15:45.645Z,0
2018-05-04T02:16:47.226Z,0
2018-05-04T02:17:48.795Z,0
2018-05-04T02:18:50.401Z,0
2018-05-04T02:19:51.989Z,0
2018-05-04T02:20:53.566Z,0
2018-05-04T02:21:55.165Z,0
2018-05-04T02:22:56.749Z,0
2018-05-04T02:23:58.317Z,0
2018-05-04T02:24:59.899Z,0
2018-05-04T02:26:01.554Z,0
2018-05-04T02:27:03.145Z,0
2018-05-04T02:28:04.749Z,0
2018-05-04T02:29:06.312Z,0
2018-05-04T02:30:07.911Z,0
2018-05-04T02:31:09.487Z,0
2018-05-04T02:32:11.133Z,0
2018-05-04T02:33:12.722Z,0
2018-05-04T02:34:14.306Z,0
2018-05-04T02:35:15.893Z,0
2018-05-04T02:36:17.483Z,0
2018-05-04T02:37:19.083Z,0
2018-05-04T02:38:20.682Z,0
2018-05-04T02:39:22.289Z,0
2018-05-04T02:40:23.853Z,0
2018-05-04T02:41:25.438Z,0
2018-05-04T02:42:27.012Z,0
2018-05-04T02:43:28.600Z,0
2018-05-04T02:44:30.172Z,0
2018-05-04T02:45:31.793Z,0
2018-05-04T02:46:33.380Z,0
2018-05-04T02:47:34.978Z,0
2018-05-04T02:48:36.579Z,0
2018-05-04T02:49:38.166Z,0
2018-05-04T02:50:39.773Z,0
2018-05-04T02:51:41.394Z,0
2018-05-04T02:52:42.980Z,0
2018-05-04T02:53:44.574Z,0
2018-05-04T02:54:46.178Z,0
2018-05-04T02:55:47.757Z,0
2018-05-04T02:56:49.361Z,0
2018-05-04T02:57:50.942Z,0
2018-05-04T02:58:52.515Z,0
2018-05-04T02:59:54.128Z,0
2018-05-04T03:00:55.715Z,0
2018-05-04T03:01:57.310Z,0
2018-05-04T03:02:58.884Z,0
2018-05-04T03:04:00.487Z,0
2018-05-04T03:05:02.134Z,0
2018-05-04T03:06:03.723Z,0
2018-05-04T03:07:05.332Z,0
2018-05-04T03:08:06.916Z,0
2018-05-04T03:09:08.529Z,0
2018-05-04T03:10:10.132Z,0
2018-05-04T03:11:11.740Z,0
2018-05-04T03:12:13.343Z,0
2018-05-04T03:13:14.945Z,0
2018-05-04T03:14:16.520Z,0
2018-05-04T03:15:18.107Z,0
2018-05-04T03:16:19.706Z,0
2018-05-04T03:17:21.298Z,0
2018-05-04T03:18:22.906Z,0
2018-05-04T03:19:24.515Z,0
2018-05-04T03:20:26.085Z,0
2018-05-04T03:21:27.667Z,0
2018-05-04T03:22:29.248Z,0
2018-05-04T03:23:30.839Z,0
2018-05-04T03:24:32.431Z,0
2018-05-04T03:25:34.027Z,0
2018-05-04T03:26:35.617Z,0
2018-05-04T03:27:37.198Z,0
2018-05-04T03:28:38.808Z,0
2018-05-04T03:29:40.405Z,0
2018-05-04T03:30:41.991Z,0
2018-05-04T03:31:43.612Z,0
2018-05-04T03:32:45.192Z,0
2018-05-04T03:33:46.769Z,0
2018-05-04T03:34:48.351Z,0
2018-05-04T03:35:49.934Z,0
2018-05-04T03:36:51.532Z,0
2018-05-04T03:37:53.109Z,0
2018-05-04T03:38:54.693Z,0
2018-05-04T03:39:56.293Z,0
2018-05-04T03:40:57.880Z,0
2018-05-04T03:41:59.479Z,0
2018-05-04T03:43:01.066Z,0
2018-05-04T03:44:02.709Z,0
2018-05-04T03:45:04.285Z,0
2018-05-04T03:46:05.878Z,0
2018-05-04T03:47:07.458Z,0
2018-05-04T03:48:09.122Z,0
2018-05-04T03:49:10.714Z,0
2018-05-04T03:50:12.311Z,0
2018-05-04T03:51:13.891Z,0
2018-05-04T03:52:15.478Z,0
2018-05-04T03:53:17.105Z,0
2018-05-04T03:54:18.708Z,0
2018-05-04T03:55:20.301Z,0
2018-05-04T03:56:21.881Z,0
2018-05-04T03:57:23.535Z,0
2018-05-04T03:58:25.112Z,0
2018-05-04T03:59:26.708Z,0
2018-05-04T04:00:28.306Z,0
2018-05-04T04:01:29.899Z,0
2018-05-04T04:02:31.506Z,0
2018-05-04T04:03:33.065Z,0
2018-05-04T04:04:34.701Z,0
2018-05-04T04:05:36.288Z,0
2018-05-04T04:06:37.877Z,0
2018-05-04T04:07:39.482Z,0
2018-05-04T04:08:41.085Z,0
2018-05-04T04:09:42.702Z,0
2018-05-04T04:10:44.293Z,0
2018-05-04T04:11:45.874Z,0
2018-05-04T04:12:47.462Z,0
2018-05-04T04:13:49.068Z,0
2018-05-04T04:14:50.654Z,0
2018-05-04T04:15:52.261Z,0
2018-05-04T04:16:53.860Z,0
2018-05-04T04:17:55.462Z,0
2018-05-04T04:18:57.051Z,0
2018-05-04T04:19:58.653Z,0
2018-05-04T04:21:00.260Z,0
2018-05-04T04:22:01.883Z,0
2018-05-04T04:23:03.464Z,0
2018-05-04T04:24:05.057Z,0
2018-05-04T04:25:06.656Z,0
2018-05-04T04:26:08.909Z,0
2018-05-04T04:27:10.494Z,0
2018-05-04T04:28:12.204Z,0
2018-05-04T04:29:13.708Z,0
2018-05-04T04:30:15.305Z,0
2018-05-04T04:31:16.903Z,0
2018-05-04T04:32:18.483Z,0
2018-05-04T04:33:20.060Z,0
2018-05-04T04:34:21.665Z,0
2018-05-04T04:35:23.270Z,0
2018-05-04T04:36:24.853Z,0
2018-05-04T04:37:26.442Z,0
2018-05-04T04:38:28.012Z,0
2018-05-04T04:39:29.591Z,0
2018-05-04T04:40:31.172Z,0
2018-05-04T04:41:32.775Z,0
2018-05-04T04:42:34.366Z,0
2018-05-04T04:43:35.970Z,0
2018-05-04T04:44:37.580Z,0
2018-05-04T04:45:39.257Z,0
2018-05-04T04:46:40.791Z,0
2018-05-04T04:47:42.409Z,0
2018-05-04T04:48:44.000Z,0
2018-05-04T04:49:45.591Z,0
2018-05-04T04:50:47.167Z,0
2018-05-04T04:51:48.744Z,0
2018-05-04T04:52:50.347Z,0
2018-05-04T04:53:51.948Z,0
2018-05-04T04:54:53.546Z,0
2018-05-04T04:55:55.157Z,0
2018-05-04T04:56:56.765Z,0
2018-05-04T04:57:58.342Z,0
2018-05-04T04:58:59.928Z,0
2018-05-04T05:00:01.512Z,0
2018-05-04T05:01:03.089Z,0
2018-05-04T05:02:04.714Z,0
2018-05-04T05:03:06.306Z,0
2018-05-04T05:04:07.910Z,0
2018-05-04T05:05:09.504Z,0
2018-05-04T05:06:11.145Z,4
2018-05-04T05:07:12.743Z,4
2018-05-04T05:08:14.317Z,4
2018-05-04T05:09:15.912Z,4
2018-05-04T05:10:17.519Z,4
2018-05-04T05:11:19.107Z,8
2018-05-04T05:12:20.689Z,8
2018-05-04T05:13:22.280Z,8
2018-05-04T05:14:23.854Z,12
2018-05-04T05:15:25.458Z,16
2018-05-04T05:16:27.122Z,16
2018-05-04T05:17:28.730Z,20
2018-05-04T05:18:30.313Z,24
2018-05-04T05:19:31.911Z,28
2018-05-04T05:20:33.538Z,32
2018-05-04T05:21:35.115Z,40
2018-05-04T05:22:36.743Z,48
2018-05-04T05:23:38.356Z,56
2018-05-04T05:24:39.945Z,68
2018-05-04T05:25:41.555Z,80
2018-05-04T05:26:43.159Z,88
2018-05-04T05:27:44.781Z,104
2018-05-04T05:28:46.326Z,116
2018-05-04T05:29:47.933Z,132
2018-05-04T05:30:49.526Z,148
2018-05-04T05:31:51.140Z,172
2018-05-04T05:32:52.786Z,188
2018-05-04T05:33:54.406Z,208
2018-05-04T05:34:55.993Z,228
2018-05-04T05:35:57.596Z,252
2018-05-04T05:36:59.193Z,276
2018-05-04T05:38:00.792Z,296
2018-05-04T05:39:02.394Z,320
2018-05-04T05:40:03.987Z,344
2018-05-04T05:41:05.590Z,368
2018-05-04T05:42:07.244Z,388
2018-05-04T05:43:08.869Z,416
2018-05-04T05:44:10.452Z,436
2018-05-04T05:45:12.062Z,460
2018-05-04T05:46:13.647Z,484
2018-05-04T05:47:15.249Z,504
2018-05-04T05:48:16.839Z,528
2018-05-04T05:49:18.481Z,548
2018-05-04T05:50:20.069Z,564
2018-05-04T05:51:21.693Z,584
2018-05-04T05:52:23.283Z,600
2018-05-04T05:53:24.881Z,616
2018-05-04T05:54:26.471Z,628
2018-05-04T05:55:28.060Z,652
2018-05-04T05:56:29.656Z,676
2018-05-04T05:57:31.267Z,704
2018-05-04T05:58:32.862Z,736
2018-05-04T05:59:34.489Z,768
2018-05-04T06:00:37.732Z,784
2018-05-04T06:01:39.288Z,808
2018-05-04T06:02:40.898Z,828
2018-05-04T06:03:42.525Z,848
2018-05-04T06:04:44.111Z,876
2018-05-04T06:05:45.735Z,900
2018-05-04T06:06:47.326Z,932
2018-05-04T06:07:48.923Z,956
2018-05-04T06:08:50.543Z,988
2018-05-04T06:09:52.147Z,1020
2018-05-04T06:10:53.732Z,1056
2018-05-04T06:11:55.312Z,1096
2018-05-04T06:12:56.946Z,1116
2018-05-04T06:13:58.592Z,1144
2018-05-04T06:15:00.481Z,1176
2018-05-04T06:16:02.084Z,1228
2018-05-04T06:17:03.717Z,1256
2018-05-04T06:18:05.331Z,1272
2018-05-04T06:19:06.953Z,1316
2018-05-04T06:20:08.554Z,1368
2018-05-04T06:21:10.164Z,1440
2018-05-04T06:22:11.762Z,1532
2018-05-04T06:23:13.377Z,1596
2018-05-04T06:24:14.957Z,1616
2018-05-04T06:25:16.562Z,1596
2018-05-04T06:26:18.170Z,1600
2018-05-04T06:27:19.751Z,1632
2018-05-04T06:28:21.367Z,1708
2018-05-04T06:29:22.970Z,1772
2018-05-04T06:30:24.599Z,1808
2018-05-04T06:31:26.223Z,1836
2018-05-04T06:32:27.815Z,1864
2018-05-04T06:33:29.421Z,1888
2018-05-04T06:34:31.019Z,1908
2018-05-04T06:35:32.612Z,1932
2018-05-04T06:36:34.228Z,1952
2018-05-04T06:37:35.844Z,1972
2018-05-04T06:38:37.453Z,1996
2018-05-04T06:39:39.651Z,2016
2018-05-04T06:40:41.172Z,2036
2018-05-04T06:41:42.837Z,2056
2018-05-04T06:42:44.488Z,2076
2018-05-04T06:43:46.045Z,2040
2018-05-04T06:44:47.602Z,2060
2018-05-04T06:45:49.185Z,2076
2018-05-04T06:46:50.766Z,2096
2018-05-04T06:47:52.331Z,2112
2018-05-04T06:48:53.896Z,2128
2018-05-04T06:49:55.472Z,2148
2018-05-04T06:50:57.036Z,2168
2018-05-04T06:51:58.630Z,2188
2018-05-04T06:53:00.208Z,2204
2018-05-04T06:54:01.794Z,2216
2018-05-04T06:55:03.359Z,2232
2018-05-04T06:56:04.926Z,2252
2018-05-04T06:57:06.501Z,2264
2018-05-04T06:58:08.053Z,2280
2018-05-04T06:59:09.611Z,2300
2018-05-04T07:00:11.228Z,2312
2018-05-04T07:01:12.805Z,2328
2018-05-04T07:02:14.367Z,2340
2018-05-04T07:03:15.948Z,2356
2018-05-04T07:04:17.522Z,2368
2018-05-04T07:05:19.076Z,2384
2018-05-04T07:06:20.652Z,2400
2018-05-04T07:07:22.223Z,2408
2018-05-04T07:08:23.789Z,2424
2018-05-04T07:09:25.364Z,2440
2018-05-04T07:10:26.976Z,2448
2018-05-04T07:11:28.517Z,2456
2018-05-04T07:12:30.093Z,2472
2018-05-04T07:13:31.679Z,2480
2018-05-04T07:14:33.243Z,2488
2018-05-04T07:15:34.810Z,2500
2018-05-04T07:16:36.378Z,2504
2018-05-04T07:17:37.949Z,2516
2018-05-04T07:18:39.509Z,2528
2018-05-04T07:19:41.074Z,2544
2018-05-04T07:20:42.633Z,2552
2018-05-04T07:21:44.241Z,2564
2018-05-04T07:22:45.762Z,2580
2018-05-04T07:23:47.330Z,2588
2018-05-04T07:24:48.898Z,2592
2018-05-04T07:25:50.458Z,2604
2018-05-04T07:26:52.027Z,2612
2018-05-04T07:27:53.587Z,2620
2018-05-04T07:28:55.143Z,2628
2018-05-04T07:29:56.729Z,2644
2018-05-04T07:30:58.301Z,2648
2018-05-04T07:31:59.861Z,2664
2018-05-04T07:33:01.427Z,2668
2018-05-04T07:34:03.021Z,2676
2018-05-04T07:35:04.578Z,2688
2018-05-04T07:36:06.228Z,2696
2018-05-04T07:37:07.730Z,2704
2018-05-04T07:38:09.300Z,2712
2018-05-04T07:39:10.871Z,2720
2018-05-04T07:40:12.435Z,2728
2018-05-04T07:41:13.998Z,2736
2018-05-04T07:42:15.566Z,2744
2018-05-04T07:43:17.159Z,2756
2018-05-04T07:44:18.724Z,2764
2018-05-04T07:45:20.291Z,2764
2018-05-04T07:46:21.859Z,2780
2018-05-04T07:47:23.432Z,2788
2018-05-04T07:48:24.996Z,2800
2018-05-04T07:49:26.560Z,2804
2018-05-04T07:50:28.141Z,2808
2018-05-04T07:51:29.704Z,2824
2018-05-04T07:52:31.267Z,2836
2018-05-04T07:53:32.848Z,2840
2018-05-04T07:54:34.424Z,2844
2018-05-04T07:55:35.992Z,2860
2018-05-04T07:56:37.552Z,2868
2018-05-04T07:57:39.123Z,2872
2018-05-04T07:58:40.690Z,2880
2018-05-04T07:59:42.247Z,2888
2018-05-04T08:00:43.816Z,2892
2018-05-04T08:01:45.397Z,2896
2018-05-04T08:02:47.044Z,2900
2018-05-04T08:03:48.533Z,2904
2018-05-04T08:04:50.106Z,2912
2018-05-04T08:05:51.670Z,2916
2018-05-04T08:06:53.232Z,2924
2018-05-04T08:07:54.793Z,2928
2018-05-04T08:08:56.386Z,2932
2018-05-04T08:09:57.947Z,2940
2018-05-04T08:10:59.535Z,2944
2018-05-04T08:12:01.101Z,2952
2018-05-04T08:13:02.695Z,2952
2018-05-04T08:14:04.262Z,2956
2018-05-04T08:15:05.839Z,2960
2018-05-04T08:16:07.419Z,2968
2018-05-04T08:17:08.978Z,2972
2018-05-04T08:18:10.549Z,2976
2018-05-04T08:19:12.122Z,2980
2018-05-04T08:20:13.681Z,2980
2018-05-04T08:21:15.260Z,2988
2018-05-04T08:22:16.820Z,2996
2018-05-04T08:23:18.389Z,3000
2018-05-04T08:24:19.940Z,3004
2018-05-04T08:25:21.501Z,3012
2018-05-04T08:26:23.063Z,3024
2018-05-04T08:27:24.657Z,3024
2018-05-04T08:28:26.203Z,3028
2018-05-04T08:29:27.780Z,3040
2018-05-04T08:30:29.366Z,3044
2018-05-04T08:31:30.948Z,3056
2018-05-04T08:32:32.574Z,3060
2018-05-04T08:33:34.158Z,3068
2018-05-04T08:34:35.730Z,3076
2018-05-04T08:35:37.353Z,3084
2018-05-04T08:36:38.922Z,3088
2018-05-04T08:37:40.487Z,3096
2018-05-04T08:38:42.064Z,3108
2018-05-04T08:39:43.625Z,3116
2018-05-04T08:40:45.204Z,3120
2018-05-04T08:41:46.788Z,3124
2018-05-04T08:42:48.389Z,3136
2018-05-04T08:43:49.933Z,3144
2018-05-04T08:44:51.537Z,3152
2018-05-04T08:45:53.112Z,3160
2018-05-04T08:46:54.691Z,3160
2018-05-04T08:47:56.255Z,3172
2018-05-04T08:48:57.832Z,3172
2018-05-04T08:49:59.397Z,3176
2018-05-04T08:51:01.047Z,3184
2018-05-04T08:52:02.501Z,3188
2018-05-04T08:53:04.074Z,3188
2018-05-04T08:54:05.680Z,3196
2018-05-04T08:55:07.258Z,3204
2018-05-04T08:56:08.825Z,3212
2018-05-04T08:57:10.458Z,3220
2018-05-04T08:58:11.988Z,3228
2018-05-04T08:59:13.557Z,3236
2018-05-04T09:00:15.137Z,3240
2018-05-04T09:01:16.733Z,3248
2018-05-04T09:02:18.305Z,3252
2018-05-04T09:03:19.879Z,3256
2018-05-04T09:04:21.434Z,3260
2018-05-04T09:05:23.090Z,3280
2018-05-04T09:06:24.587Z,3320
2018-05-04T09:07:26.150Z,3340
2018-05-04T09:08:27.722Z,3352
2018-05-04T09:09:29.286Z,3380
2018-05-04T09:10:30.863Z,3388
2018-05-04T09:11:32.432Z,3420
2018-05-04T09:12:33.995Z,3444
2018-05-04T09:13:35.596Z,3436
2018-05-04T09:14:37.166Z,3436
2018-05-04T09:15:38.739Z,3448
2018-05-04T09:16:40.314Z,3460
2018-05-04T09:17:41.882Z,3460
2018-05-04T09:18:43.450Z,3468
2018-05-04T09:19:45.077Z,3480
2018-05-04T09:20:46.632Z,3484
2018-05-04T09:21:48.194Z,3492
2018-05-04T09:22:49.770Z,3492
2018-05-04T09:23:51.337Z,3512
2018-05-04T09:24:52.913Z,3528
2018-05-04T09:25:54.476Z,3536
2018-05-04T09:26:56.056Z,3552
2018-05-04T09:27:57.752Z,3572
2018-05-04T09:28:59.318Z,3588
2018-05-04T09:30:00.915Z,3604
2018-05-04T09:31:02.544Z,3616
2018-05-04T09:32:04.056Z,3624
2018-05-04T09:33:05.631Z,3644
2018-05-04T09:34:07.191Z,3640
2018-05-04T09:35:08.789Z,3648
2018-05-04T09:36:10.372Z,3660
2018-05-04T09:37:12.052Z,3684
2018-05-04T09:38:13.521Z,3704
2018-05-04T09:39:15.090Z,3696
2018-05-04T09:40:16.666Z,3684
2018-05-04T09:41:18.245Z,3684
2018-05-04T09:42:19.813Z,3708
2018-05-04T09:43:21.412Z,3736
2018-05-04T09:44:23.008Z,3736
2018-05-04T09:45:24.576Z,3736
2018-05-04T09:46:26.151Z,3736
2018-05-04T09:47:27.735Z,3748
2018-05-04T09:48:29.327Z,3748
2018-05-04T09:49:30.906Z,3772
2018-05-04T09:50:32.486Z,3796
2018-05-04T09:51:34.092Z,3816
2018-05-04T09:52:35.685Z,3836
2018-05-04T09:53:37.247Z,3836
2018-05-04T09:54:38.866Z,3836
2018-05-04T09:55:40.445Z,3848
2018-05-04T09:56:42.040Z,3860
2018-05-04T09:57:43.607Z,3856
2018-05-04T09:58:45.194Z,3852
2018-05-04T09:59:46.763Z,3860
2018-05-04T10:00:48.323Z,3876
2018-05-04T10:01:49.888Z,3888
2018-05-04T10:02:51.483Z,3896
2018-05-04T10:03:53.065Z,3904
2018-05-04T10:04:54.645Z,3928
2018-05-04T10:05:56.219Z,3956
2018-05-04T10:06:57.798Z,3960
2018-05-04T10:07:59.385Z,3980
2018-05-04T10:09:01.028Z,4004
2018-05-04T10:10:02.521Z,4000
2018-05-04T10:11:04.089Z,4016
2018-05-04T10:12:05.662Z,4028
2018-05-04T10:13:07.245Z,4044
2018-05-04T10:14:08.810Z,4044
2018-05-04T10:15:10.390Z,4052
2018-05-04T10:16:11.972Z,4052
2018-05-04T10:17:13.543Z,4068
2018-05-04T10:18:15.131Z,4084
2018-05-04T10:19:16.681Z,4092
2018-05-04T10:20:18.252Z,4108
2018-05-04T10:21:19.846Z,4100
2018-05-04T10:22:21.405Z,4112
2018-05-04T10:23:22.979Z,4108
2018-05-04T10:24:24.552Z,4120
2018-05-04T10:25:26.125Z,4128
2018-05-04T10:26:27.696Z,4144
2018-05-04T10:27:29.278Z,4184
2018-05-04T10:28:30.854Z,4196
2018-05-04T10:29:32.421Z,4196
2018-05-04T10:30:34.005Z,4212
2018-05-04T10:31:35.590Z,4240
2018-05-04T10:32:37.157Z,4252
2018-05-04T10:33:38.758Z,4260
2018-05-04T10:34:40.337Z,4272
2018-05-04T10:35:41.907Z,4272
2018-05-04T10:36:43.484Z,4280
2018-05-04T10:37:45.044Z,4268
2018-05-04T10:38:46.737Z,4272
2018-05-04T10:39:48.202Z,4280
2018-05-04T10:40:49.839Z,4288
2018-05-04T10:41:51.409Z,4308
2018-05-04T10:42:52.989Z,4316
2018-05-04T10:43:54.580Z,4344
2018-05-04T10:44:56.246Z,4372
2018-05-04T10:45:57.922Z,4392
2018-05-04T10:46:59.606Z,4404
2018-05-04T10:48:01.340Z,4432
2018-05-04T10:49:03.039Z,4444
2018-05-04T10:50:04.743Z,4468
2018-05-04T10:51:06.488Z,4464
2018-05-04T10:52:08.270Z,4468
2018-05-04T10:53:09.846Z,4464
2018-05-04T10:54:11.557Z,4488
2018-05-04T10:55:13.217Z,4508
2018-05-04T10:56:14.868Z,4500
2018-05-04T10:57:16.681Z,4528
2018-05-04T10:58:18.327Z,4544
2018-05-04T10:59:20.082Z,4560
2018-05-04T11:00:21.749Z,4584
2018-05-04T11:01:23.399Z,4608
2018-05-04T11:02:25.017Z,4624
2018-05-04T11:03:26.601Z,4628
2018-05-04T11:04:28.167Z,4628
2018-05-04T11:05:30.082Z,4652
2018-05-04T11:06:31.662Z,4664
2018-05-04T11:07:33.232Z,4688
2018-05-04T11:08:34.890Z,4700
2018-05-04T11:09:36.479Z,4716
2018-05-04T11:10:38.060Z,4712
2018-05-04T11:11:39.604Z,4720
2018-05-04T11:12:41.176Z,4744
2018-05-04T11:13:42.768Z,4748
2018-05-04T11:14:44.395Z,4768
2018-05-04T11:15:45.962Z,4784
2018-05-04T11:16:47.714Z,4796
2018-05-04T11:17:49.275Z,4820
2018-05-04T11:18:50.854Z,4852
2018-05-04T11:19:52.428Z,4884
2018-05-04T11:20:54.010Z,4904
2018-05-04T11:21:55.602Z,4916
2018-05-04T11:22:57.184Z,4956
2018-05-04T11:23:58.766Z,4984
2018-05-04T11:25:00.333Z,5004
2018-05-04T11:26:01.922Z,5016
2018-05-04T11:27:03.468Z,5044
2018-05-04T11:28:05.050Z,5076
2018-05-04T11:29:06.614Z,5088
2018-05-04T11:30:08.189Z,5128
2018-05-04T11:31:09.746Z,5160
2018-05-04T11:32:11.332Z,5188
2018-05-04T11:33:12.903Z,5228
2018-05-04T11:34:14.497Z,5264
2018-05-04T11:35:16.066Z,5312
2018-05-04T11:36:17.640Z,5376
2018-05-04T11:37:19.223Z,5416
2018-05-04T11:38:20.797Z,5484
2018-05-04T11:39:22.373Z,5536
2018-05-04T11:40:23.944Z,5588
2018-05-04T11:41:25.522Z,5644
2018-05-04T11:42:27.105Z,5688
2018-05-04T11:43:28.682Z,5740
2018-05-04T11:44:30.247Z,5780
2018-05-04T11:45:31.825Z,5848
2018-05-04T11:46:33.400Z,5912
2018-05-04T11:47:34.978Z,5984
2018-05-04T11:48:36.615Z,6084
2018-05-04T11:49:38.210Z,6204
2018-05-04T11:50:39.786Z,6328
2018-05-04T11:51:41.361Z,6468
2018-05-04T11:52:42.927Z,6632
2018-05-04T11:53:44.486Z,6800
2018-05-04T11:54:46.064Z,7008
2018-05-04T11:55:47.667Z,7212
2018-05-04T11:56:49.241Z,7456
2018-05-04T11:57:50.812Z,7652
2018-05-04T11:58:52.385Z,7916
2018-05-04T11:59:53.953Z,8480
2018-05-04T12:00:55.539Z,14100
2018-05-04T12:01:57.133Z,40800
2018-05-04T12:02:58.714Z,69632
2018-05-04T12:04:00.287Z,80416
2018-05-04T12:05:01.871Z,79392
2018-05-04T12:06:03.463Z,77344
2018-05-04T12:07:05.032Z,76096
2018-05-04T12:08:06.607Z,74144
2018-05-04T12:09:08.185Z,74816
2018-05-04T12:10:09.765Z,67744
2018-05-04T12:11:11.336Z,66528
2018-05-04T12:12:12.922Z,68544
2018-05-04T12:13:14.515Z,66592
2018-05-04T12:14:16.086Z,68096
2018-05-04T12:15:17.647Z,70720
2018-05-04T12:16:19.300Z,64448
2018-05-04T12:17:20.863Z,65344
2018-05-04T12:18:22.455Z,70208
2018-05-04T12:19:24.041Z,72000
2018-05-04T12:20:25.621Z,70016
2018-05-04T12:21:27.210Z,69376
2018-05-04T12:22:28.797Z,70816
2018-05-04T12:23:30.392Z,68416
2018-05-04T12:24:31.981Z,67072
2018-05-04T12:25:33.568Z,67328
2018-05-04T12:26:35.151Z,73184
2018-05-04T12:27:36.742Z,76448
2018-05-04T12:28:38.347Z,79616
2018-05-04T12:29:39.935Z,79936
2018-05-04T12:30:41.506Z,77408
2018-05-04T12:31:43.118Z,76096
2018-05-04T12:32:44.701Z,80032
2018-05-04T12:33:46.331Z,84000
2018-05-04T12:34:47.947Z,87296
2018-05-04T12:35:49.539Z,93600
2018-05-04T12:36:51.133Z,96672
2018-05-04T12:37:52.702Z,96704
2018-05-04T12:38:54.291Z,96480
2018-05-04T12:39:55.865Z,99968
2018-05-04T12:40:57.448Z,108800
2018-05-04T12:41:59.073Z,106912
2018-05-04T12:43:00.700Z,103968
2018-05-04T12:44:02.292Z,107040
2018-05-04T12:45:03.874Z,107776
2018-05-04T12:46:05.468Z,110240
2018-05-04T12:47:07.110Z,110272
2018-05-04T12:48:08.626Z,113568
2018-05-04T12:49:10.213Z,112128
2018-05-04T12:50:11.797Z,109504
2018-05-04T12:51:13.376Z,116416
2018-05-04T12:52:14.996Z,120128
2018-05-04T12:53:16.600Z,120352
2018-05-04T12:54:18.247Z,120704
2018-05-04T12:55:19.832Z,116800
2018-05-04T12:56:21.429Z,115392
2018-05-04T12:57:23.015Z,118432
2018-05-04T12:58:24.610Z,124096
2018-05-04T12:59:26.204Z,123136
2018-05-04T13:00:27.797Z,119616
2018-05-04T13:01:29.387Z,122144
2018-05-04T13:02:30.991Z,123488
2018-05-04T13:03:32.572Z,125472
2018-05-04T13:04:34.275Z,123584
2018-05-04T13:05:35.781Z,122112
2018-05-04T13:06:37.359Z,121120
2018-05-04T13:07:38.960Z,119808
2018-05-04T13:08:40.547Z,119520
2018-05-04T13:09:42.126Z,118368
2018-05-04T13:10:43.750Z,118464
2018-05-04T13:11:45.336Z,119136
2018-05-04T13:12:46.918Z,117888
2018-05-04T13:13:48.525Z,114528
2018-05-04T13:14:50.117Z,111808
2018-05-04T13:15:51.707Z,112768
2018-05-04T13:16:53.367Z,117664
2018-05-04T13:17:54.875Z,114592
2018-05-04T13:18:56.467Z,111712
2018-05-04T13:19:58.060Z,112704
2018-05-04T13:20:59.655Z,114368
2018-05-04T13:22:01.257Z,118592
2018-05-04T13:23:02.849Z,118752
2018-05-04T13:24:04.428Z,114048
2018-05-04T13:25:06.016Z,118304
2018-05-04T13:26:07.601Z,109536
2018-05-04T13:27:09.178Z,52960
2018-05-04T13:28:10.766Z,18912
2018-05-04T13:29:13.182Z,17600
2018-05-04T13:30:14.767Z,16320
2018-05-04T13:31:16.340Z,15576
2018-05-04T13:32:17.915Z,15416
2018-05-04T13:33:19.535Z,15300
2018-05-04T13:34:21.665Z,15276
2018-05-04T13:35:23.246Z,15420
2018-05-04T13:36:24.835Z,15812
2018-05-04T13:37:26.412Z,17152
2018-05-04T13:38:27.999Z,20416
2018-05-04T13:39:29.575Z,41984
2018-05-04T13:40:31.151Z,73408
2018-05-04T13:41:32.752Z,80192
2018-05-04T13:42:34.325Z,62880
2018-05-04T13:43:35.918Z,28448
2018-05-04T13:44:37.558Z,17568
2018-05-04T13:45:39.107Z,17056
2018-05-04T13:46:40.693Z,16576
2018-05-04T13:47:42.273Z,15616
2018-05-04T13:48:43.841Z,15212
2018-05-04T13:49:45.432Z,15048
2018-05-04T13:50:47.073Z,14968
2018-05-04T13:51:48.612Z,14920
2018-05-04T13:52:50.193Z,14992
2018-05-04T13:53:51.773Z,15056
2018-05-04T13:54:53.381Z,15096
2018-05-04T13:55:54.971Z,15152
2018-05-04T13:56:56.537Z,15188
2018-05-04T13:57:58.124Z,15156
2018-05-04T13:58:59.688Z,15104
2018-05-04T14:00:01.271Z,15072
2018-05-04T14:01:02.960Z,15108
2018-05-04T14:02:04.470Z,15216
2018-05-04T14:03:06.062Z,15296
2018-05-04T14:04:07.648Z,15512
2018-05-04T14:05:09.232Z,15940
2018-05-04T14:06:10.860Z,17376
2018-05-04T14:07:12.450Z,21696